Time;durP1;ratioP1;P1;durP2;ratioP2;P2;SDS_P1;SDS_P2;PMS_P1;PMS_P2;Temp;Humidity;BMP_temperature;BMP_pressure;BME280_temperature;BME280_humidity;BME280_pressure;Samples;Min_cycle;Max_cycle;Signal;HPM_P1;HPM_P2
2023/12/25 12:50:08;;;;;;;20.25;3.55;;;;;;;21.14;23.73;100792.88;1277514;24;20720;-91
2023/12/25 12:52:40;;;;;;;1.05;0.63;;;;;;;21.18;23.70;100785.94;4789527;29;20533;-91
2023/12/25 12:55:08;;;;;;;0.68;0.30;;;;;;;21.25;23.65;100777.72;4806975;29;20438;-91
2023/12/25 12:57:52;;;;;;;3.45;0.77;;;;;;;21.20;23.71;100772.22;4807157;29;20494;-92
2023/12/25 13:00:20;;;;;;;2.25;0.55;;;;;;;21.22;23.58;100769.28;4809279;29;20410;-90
2023/12/25 13:02:52;;;;;;;0.80;0.40;;;;;;;21.30;23.85;100777.81;4798380;29;20431;-90
2023/12/25 13:05:25;;;;;;;0.43;0.30;;;;;;;21.32;23.98;100769.47;4796462;29;20463;-89
2023/12/25 13:07:59;;;;;;;0.82;0.50;;;;;;;21.37;24.13;100786.59;4807563;29;20800;-90
2023/12/25 13:10:33;;;;;;;1.45;0.43;;;;;;;21.21;24.09;100784.63;4801842;29;20403;-89
2023/12/25 13:13:07;;;;;;;1.30;0.43;;;;;;;21.29;24.02;100792.34;4791990;29;20460;-90
2023/12/25 13:15:41;;;;;;;1.40;0.50;;;;;;;21.20;24.08;100785.69;4781385;30;20781;-90
2023/12/25 13:18:12;;;;;;;1.10;0.60;;;;;;;21.42;24.04;100807.41;4771585;30;20499;-90
2023/12/25 13:20:47;;;;;;;2.08;0.60;;;;;;;21.19;23.82;100784.88;4785437;30;20412;-92
2023/12/25 13:23:27;;;;;;;2.55;0.98;;;;;;;21.18;24.10;100780.53;4770738;30;20429;-92
2023/12/25 13:26:04;;;;;;;1.30;0.50;;;;;;;21.35;24.12;100793.25;4795215;29;20419;-91
2023/12/25 13:28:33;;;;;;;1.70;0.50;;;;;;;21.41;23.89;100803.09;4803030;29;20418;-90
2023/12/25 13:31:06;;;;;;;1.80;0.50;;;;;;;21.49;23.68;100800.03;4788314;29;20580;-89
2023/12/25 13:33:39;;;;;;;0.82;0.40;;;;;;;21.50;23.93;100815.19;4788111;29;20426;-90
2023/12/25 13:36:17;;;;;;;1.37;0.70;;;;;;;21.58;23.85;100812.06;4804015;29;20853;-90
2023/12/25 13:38:50;;;;;;;1.50;0.60;;;;;;;21.55;23.67;100822.53;4803801;29;20493;-90
2023/12/25 13:41:23;;;;;;;1.50;0.45;;;;;;;21.43;24.04;100816.31;4803770;29;20509;-91
2023/12/25 13:43:52;;;;;;;1.08;0.30;;;;;;;21.49;24.06;100801.94;4790180;29;20498;-89
2023/12/25 13:46:23;;;;;;;0.57;0.38;;;;;;;21.45;23.99;100814.22;4775214;29;20426;-89
2023/12/25 13:49:20;;;;;;;0.82;0.30;;;;;;;21.64;24.15;100815.69;4802196;29;20759;-91
2023/12/25 13:51:52;;;;;;;2.10;0.70;;;;;;;21.50;24.13;100808.94;4700893;29;2906527;-90
2023/12/25 13:54:27;;;;;;;1.30;0.50;;;;;;;21.46;24.06;100822.09;4813837;29;21038;-91
2023/12/25 13:56:56;;;;;;;2.58;0.90;;;;;;;21.44;24.19;100828.75;4787443;29;20503;-90
2023/12/25 13:59:25;;;;;;;1.25;0.50;;;;;;;21.37;24.39;100820.81;4788755;30;20495;-90
2023/12/25 14:01:55;;;;;;;0.93;0.40;;;;;;;21.50;24.54;100830.50;4789248;29;20420;-89
2023/12/25 14:04:26;;;;;;;2.15;0.80;;;;;;;21.62;24.41;100822.41;4804213;29;20423;-90
2023/12/25 14:06:58;;;;;;;0.57;0.50;;;;;;;21.56;24.47;100818.78;4806116;29;20408;-90
2023/12/25 14:12:53;;;;;;;3.27;0.90;;;;;;;21.41;24.53;100813.88;4783468;29;20423;-91
2023/12/25 14:15:26;;;;;;;1.58;0.90;;;;;;;21.33;24.73;100817.75;4795820;29;20502;-90
2023/12/25 14:18:08;;;;;;;2.15;0.50;;;;;;;21.28;24.66;100822.22;4790923;30;20400;-91
2023/12/25 14:20:53;;;;;;;1.33;0.55;;;;;;;21.30;24.58;100830.91;4789169;29;20420;-91
2023/12/25 14:23:21;;;;;;;0.68;0.30;;;;;;;21.32;24.71;100826.94;4787810;29;20415;-91
2023/12/25 14:25:48;;;;;;;0.93;0.50;;;;;;;21.19;24.61;100828.00;4787061;29;20420;-90
2023/12/25 14:28:22;;;;;;;1.00;0.40;;;;;;;21.29;24.73;100832.78;4789086;30;20412;-91
2023/12/25 14:31:04;;;;;;;1.63;0.63;;;;;;;21.24;25.04;100823.78;4789352;30;20417;-89
2023/12/25 14:33:34;;;;;;;1.42;0.65;;;;;;;21.25;25.16;100831.63;4789302;29;20440;-90
2023/12/25 14:36:06;;;;;;;0.90;0.43;;;;;;;21.11;25.05;100832.94;4788963;29;20420;-90
2023/12/25 14:38:44;;;;;;;0.47;0.35;;;;;;;21.11;25.25;100832.94;4784982;29;20420;-89
2023/12/25 14:41:19;;;;;;;0.88;0.60;;;;;;;21.15;25.05;100843.00;4789085;30;20496;-89
2023/12/25 14:44:09;;;;;;;1.90;0.63;;;;;;;21.07;25.06;100834.47;4754480;29;20416;-91
2023/12/25 14:49:46;;;;;;;2.70;0.93;;;;;;;20.94;25.26;100840.91;4758129;30;20493;-91
2023/12/25 14:52:22;;;;;;;1.95;0.80;;;;;;;20.90;25.41;100847.84;4806078;29;20461;-91
2023/12/25 14:54:53;;;;;;;0.85;0.40;;;;;;;20.84;25.27;100865.78;4790226;29;20431;-90
2023/12/25 15:00:49;;;;;;;1.98;0.85;;;;;;;20.71;26.86;100853.38;4807554;29;20944;-90
2023/12/25 15:03:20;;;;;;;0.80;0.47;;;;;;;20.68;26.81;100863.78;4789578;29;20493;-90
2023/12/25 15:09:13;;;;;;;1.77;0.73;;;;;;;20.64;26.66;100863.44;4806851;29;20414;-89
2023/12/25 15:11:46;;;;;;;1.20;0.70;;;;;;;20.58;26.61;100880.47;4790480;29;20414;-92
2023/12/25 15:14:13;;;;;;;1.73;0.85;;;;;;;20.37;26.52;100860.31;4791724;29;20418;-92
2023/12/25 15:16:48;;;;;;;2.20;1.27;;;;;;;20.41;26.46;100880.34;4776279;29;20434;-90
2023/12/25 15:19:17;;;;;;;1.02;0.57;;;;;;;20.36;26.66;100870.25;4805860;29;20841;-90
2023/12/25 15:21:44;;;;;;;0.73;0.60;;;;;;;20.40;27.02;100881.38;4791431;29;20438;-90
2023/12/25 15:24:10;;;;;;;2.20;1.27;;;;;;;20.32;26.94;100885.25;4778297;29;20407;-91
2023/12/25 15:26:38;;;;;;;0.60;0.35;;;;;;;20.17;27.09;100876.78;4792683;29;20415;-90
2023/12/25 15:29:08;;;;;;;1.23;0.80;;;;;;;19.97;27.30;100882.44;4795331;29;20419;-91
2023/12/25 15:34:59;;;;;;;3.28;1.55;;;;;;;19.82;28.16;100894.41;4810210;29;20448;-89
2023/12/25 15:40:50;;;;;;;4.53;1.48;;;;;;;19.64;27.34;100895.25;4763865;29;20416;-89
2023/12/25 15:43:21;;;;;;;1.70;0.80;;;;;;;19.53;27.18;100906.75;4793001;29;20957;-89
2023/12/25 15:45:46;;;;;;;1.98;0.93;;;;;;;19.47;27.05;100897.72;4792794;29;20406;-93
2023/12/25 15:48:15;;;;;;;2.03;0.98;;;;;;;19.48;27.12;100906.59;4792705;29;20410;-90
2023/12/25 15:54:04;;;;;;;2.38;1.00;;;;;;;19.36;26.86;100924.53;4810032;29;20499;-90
2023/12/25 15:56:33;;;;;;;3.25;1.77;;;;;;;19.36;26.94;100933.41;4795952;29;20415;-91
2023/12/25 21:27:45;;;;;;;7.90;1.80;;;;;;;14.56;35.28;101126.38;1728716;24;20744;-85
2023/12/25 21:30:11;;;;;;;1.70;1.00;;;;;;;14.50;35.25;101127.94;4784941;29;20511;-88
2023/12/25 21:32:47;;;;;;;0.80;0.67;;;;;;;14.41;35.15;101117.56;4794969;30;20424;-87
2023/12/25 21:48:42;;;;;;;0.47;0.40;;;;;;;14.25;35.69;101124.75;4794528;30;20411;-90
2023/12/25 21:51:11;;;;;;;1.08;0.57;;;;;;;14.15;35.77;101116.19;4784806;30;20428;-89
2023/12/25 21:53:41;;;;;;;0.45;0.40;;;;;;;14.00;36.18;101116.19;4788834;30;20447;-90
2023/12/25 21:56:10;;;;;;;0.73;0.63;;;;;;;14.12;35.74;101125.38;4801379;30;20436;-90
2023/12/25 21:58:38;;;;;;;0.45;0.45;;;;;;;14.24;35.64;101135.59;4797174;30;20420;-90
2023/12/25 22:01:08;;;;;;;1.47;0.67;;;;;;;14.14;35.95;101141.19;4780674;30;20920;-90
2023/12/25 22:03:42;;;;;;;0.30;0.20;;;;;;;14.14;36.00;101143.88;4798265;30;20424;-88
2023/12/25 22:06:28;;;;;;;0.87;0.67;;;;;;;13.95;35.98;101129.22;4740603;30;20826;-88
2023/12/25 22:08:55;;;;;;;0.43;0.30;;;;;;;14.02;35.90;101137.31;4745953;30;20440;-87
2023/12/25 22:11:21;;;;;;;0.30;0.25;;;;;;;14.03;36.10;101144.31;4793367;30;20455;-90
2023/12/25 22:13:49;;;;;;;0.50;0.30;;;;;;;14.23;35.59;101157.94;4779243;30;20424;-87
2023/12/25 22:16:20;;;;;;;0.30;0.30;;;;;;;14.42;35.20;101151.22;4796369;30;20939;-88
2023/12/25 22:18:46;;;;;;;0.40;0.30;;;;;;;14.56;34.94;101152.22;4793693;30;20412;-89
2023/12/25 22:21:18;;;;;;;0.20;0.20;;;;;;;14.61;34.72;101141.88;4781906;30;20423;-90
2023/12/25 22:23:49;;;;;;;0.15;0.15;;;;;;;14.49;34.71;101152.94;4784344;30;20419;-89
2023/12/25 22:26:21;;;;;;;1.80;0.90;;;;;;;14.39;34.85;101159.59;4784145;30;20404;-87
2023/12/25 22:28:50;;;;;;;1.30;0.47;;;;;;;14.15;35.42;101150.84;4785735;29;20467;-88
2023/12/25 22:31:16;;;;;;;0.50;0.50;;;;;;;14.17;35.40;101170.16;4773204;30;20414;-89
2023/12/25 22:34:10;;;;;;;1.15;0.57;;;;;;;14.10;35.36;101164.72;4788421;30;20432;-89
2023/12/25 22:36:40;;;;;;;0.55;0.40;;;;;;;13.97;35.54;101169.84;4799487;30;20439;-89
2023/12/25 22:45:59;;;;;;;0.45;0.35;;;;;;;13.96;35.42;101152.22;4792720;30;20785;-88
2023/12/25 22:48:26;;;;;;;1.08;0.98;;;;;;;13.96;35.78;101161.03;4787154;30;20515;-87
2023/12/25 22:50:55;;;;;;;0.65;0.50;;;;;;;13.76;35.92;101154.56;4791043;30;20439;-89
2023/12/25 22:53:21;;;;;;;0.60;0.60;;;;;;;13.76;36.15;101168.69;4791120;30;20428;-89
2023/12/25 22:55:47;;;;;;;0.40;0.40;;;;;;;13.62;37.01;101164.16;4796586;30;20420;-88
2023/12/25 23:02:07;;;;;;;0.50;0.50;;;;;;;13.54;37.41;101161.53;4806085;29;20446;-90
2023/12/25 23:14:49;;;;;;;1.90;1.20;;;;;;;13.44;37.88;101161.81;4720307;30;20566;-90
2023/12/25 23:17:15;;;;;;;0.73;0.63;;;;;;;13.41;38.12;101156.81;4719928;30;20430;-89
2023/12/25 23:19:41;;;;;;;5.07;1.30;;;;;;;13.35;38.22;101160.19;4715870;30;20412;-89
2023/12/25 23:22:09;;;;;;;1.27;1.07;;;;;;;13.31;38.54;101154.41;4754479;30;20428;-90
2023/12/25 23:27:59;;;;;;;1.10;1.00;;;;;;;13.09;39.25;101161.34;4788484;29;20503;-86
2023/12/25 23:30:28;;;;;;;0.93;0.77;;;;;;;13.14;38.99;101166.13;4801534;29;20495;-85
2023/12/25 23:32:53;;;;;;;2.80;1.10;;;;;;;13.20;39.10;101165.44;4802015;29;20395;-85
2023/12/25 23:38:48;;;;;;;0.90;0.60;;;;;;;13.24;39.01;101180.03;4756958;29;20920;-89
2023/12/25 23:51:28;;;;;;;0.60;0.60;;;;;;;12.95;39.66;101183.38;4810709;29;20426;-88
2023/12/25 23:53:57;;;;;;;1.37;1.33;;;;;;;12.79;40.14;101176.28;4808810;29;20807;-88
2023/12/25 23:56:26;;;;;;;2.08;1.25;;;;;;;12.78;39.96;101179.94;4806172;29;20517;-88
2023/12/25 23:58:51;;;;;;;0.93;0.40;;;;;;;12.98;39.70;101173.22;4805948;29;20407;-87
